sensor_id;sensor_type;location;lat;lon;timestamp;P1;durP1;ratioP1;P2;durP2;ratioP2
34725;SDS011;20951;50.818;4.344;2023-06-19T00:01:57;7.65;;;5.10;;
34725;SDS011;20951;50.818;4.344;2023-06-19T00:04:23;7.90;;;5.00;;
34725;SDS011;20951;50.818;4.344;2023-06-19T00:06:53;7.00;;;5.05;;
34725;SDS011;20951;50.818;4.344;2023-06-19T00:09:19;8.35;;;4.50;;
34725;SDS011;20951;50.818;4.344;2023-06-19T00:11:45;7.72;;;4.90;;
34725;SDS011;20951;50.818;4.344;2023-06-19T00:14:11;9.18;;;4.82;;
34725;SDS011;20951;50.818;4.344;2023-06-19T00:16:36;10.13;;;5.18;;
34725;SDS011;20951;50.818;4.344;2023-06-19T00:19:05;11.00;;;4.93;;
34725;SDS011;20951;50.818;4.344;2023-06-19T00:21:31;7.70;;;5.15;;
34725;SDS011;20951;50.818;4.344;2023-06-19T00:24:00;9.55;;;4.65;;
34725;SDS011;20951;50.818;4.344;2023-06-19T00:26:26;9.70;;;4.97;;
34725;SDS011;20951;50.818;4.344;2023-06-19T00:28:52;9.00;;;5.03;;
34725;SDS011;20951;50.818;4.344;2023-06-19T00:31:18;9.00;;;4.75;;
34725;SDS011;20951;50.818;4.344;2023-06-19T00:33:47;7.18;;;4.63;;
34725;SDS011;20951;50.818;4.344;2023-06-19T00:36:13;7.50;;;4.95;;
34725;SDS011;20951;50.818;4.344;2023-06-19T00:38:40;8.60;;;4.72;;
34725;SDS011;20951;50.818;4.344;2023-06-19T00:41:07;7.53;;;4.28;;
34725;SDS011;20951;50.818;4.344;2023-06-19T00:43:33;8.90;;;4.70;;
34725;SDS011;20951;50.818;4.344;2023-06-19T00:45:59;7.40;;;4.30;;
34725;SDS011;20951;50.818;4.344;2023-06-19T00:48:27;6.25;;;4.15;;
34725;SDS011;20951;50.818;4.344;2023-06-19T00:50:53;7.13;;;4.78;;
34725;SDS011;20951;50.818;4.344;2023-06-19T00:53:21;7.10;;;4.20;;
34725;SDS011;20951;50.818;4.344;2023-06-19T00:55:47;6.78;;;4.38;;
34725;SDS011;20951;50.818;4.344;2023-06-19T00:58:14;6.63;;;4.30;;
34725;SDS011;20951;50.818;4.344;2023-06-19T01:00:41;7.13;;;4.72;;
34725;SDS011;20951;50.818;4.344;2023-06-19T01:03:06;8.32;;;4.50;;
34725;SDS011;20951;50.818;4.344;2023-06-19T01:05:32;6.65;;;4.28;;
34725;SDS011;20951;50.818;4.344;2023-06-19T01:10:47;6.65;;;4.45;;
34725;SDS011;20951;50.818;4.344;2023-06-19T01:13:34;7.00;;;4.38;;
34725;SDS011;20951;50.818;4.344;2023-06-19T01:16:22;7.70;;;4.57;;
34725;SDS011;20951;50.818;4.344;2023-06-19T01:18:49;8.35;;;4.95;;
34725;SDS011;20951;50.818;4.344;2023-06-19T01:21:16;8.65;;;5.78;;
34725;SDS011;20951;50.818;4.344;2023-06-19T01:23:43;7.68;;;4.70;;
34725;SDS011;20951;50.818;4.344;2023-06-19T01:26:10;7.25;;;4.90;;
34725;SDS011;20951;50.818;4.344;2023-06-19T01:28:47;8.18;;;4.70;;
34725;SDS011;20951;50.818;4.344;2023-06-19T01:31:20;6.40;;;4.60;;
34725;SDS011;20951;50.818;4.344;2023-06-19T01:33:51;8.20;;;4.82;;
34725;SDS011;20951;50.818;4.344;2023-06-19T01:36:19;8.15;;;4.70;;
34725;SDS011;20951;50.818;4.344;2023-06-19T01:38:47;8.27;;;5.53;;
34725;SDS011;20951;50.818;4.344;2023-06-19T01:41:15;8.02;;;5.05;;
34725;SDS011;20951;50.818;4.344;2023-06-19T01:43:41;5.60;;;4.78;;
34725;SDS011;20951;50.818;4.344;2023-06-19T01:46:10;7.88;;;5.50;;
34725;SDS011;20951;50.818;4.344;2023-06-19T01:48:37;10.45;;;5.43;;
34725;SDS011;20951;50.818;4.344;2023-06-19T01:51:07;11.00;;;5.43;;
34725;SDS011;20951;50.818;4.344;2023-06-19T01:53:33;10.23;;;5.85;;
34725;SDS011;20951;50.818;4.344;2023-06-19T01:55:59;8.27;;;5.32;;
34725;SDS011;20951;50.818;4.344;2023-06-19T01:58:26;8.30;;;5.53;;
34725;SDS011;20951;50.818;4.344;2023-06-19T02:00:52;11.05;;;5.53;;
34725;SDS011;20951;50.818;4.344;2023-06-19T02:03:21;8.20;;;5.93;;
34725;SDS011;20951;50.818;4.344;2023-06-19T02:05:47;10.10;;;5.68;;
34725;SDS011;20951;50.818;4.344;2023-06-19T02:08:15;9.98;;;6.10;;
34725;SDS011;20951;50.818;4.344;2023-06-19T02:10:43;8.48;;;6.38;;
34725;SDS011;20951;50.818;4.344;2023-06-19T02:13:11;8.80;;;5.85;;
34725;SDS011;20951;50.818;4.344;2023-06-19T02:15:37;11.35;;;5.95;;
34725;SDS011;20951;50.818;4.344;2023-06-19T02:18:03;11.35;;;6.18;;
34725;SDS011;20951;50.818;4.344;2023-06-19T02:20:36;9.18;;;5.80;;
34725;SDS011;20951;50.818;4.344;2023-06-19T02:23:02;10.43;;;6.07;;
34725;SDS011;20951;50.818;4.344;2023-06-19T02:25:31;11.60;;;6.03;;
34725;SDS011;20951;50.818;4.344;2023-06-19T02:28:00;9.15;;;5.82;;
34725;SDS011;20951;50.818;4.344;2023-06-19T02:30:26;8.88;;;6.13;;
34725;SDS011;20951;50.818;4.344;2023-06-19T02:32:52;9.02;;;6.30;;
34725;SDS011;20951;50.818;4.344;2023-06-19T02:35:27;8.68;;;6.40;;
34725;SDS011;20951;50.818;4.344;2023-06-19T02:37:53;12.65;;;6.10;;
34725;SDS011;20951;50.818;4.344;2023-06-19T02:40:18;8.43;;;6.90;;
34725;SDS011;20951;50.818;4.344;2023-06-19T02:42:44;13.65;;;7.60;;
34725;SDS011;20951;50.818;4.344;2023-06-19T02:45:10;8.32;;;6.90;;
34725;SDS011;20951;50.818;4.344;2023-06-19T02:47:36;10.43;;;7.15;;
34725;SDS011;20951;50.818;4.344;2023-06-19T02:50:02;7.50;;;6.70;;
34725;SDS011;20951;50.818;4.344;2023-06-19T02:52:29;9.80;;;7.97;;
34725;SDS011;20951;50.818;4.344;2023-06-19T02:54:55;8.88;;;7.53;;
34725;SDS011;20951;50.818;4.344;2023-06-19T02:57:21;10.73;;;8.43;;
34725;SDS011;20951;50.818;4.344;2023-06-19T02:59:47;12.32;;;9.27;;
34725;SDS011;20951;50.818;4.344;2023-06-19T03:02:13;12.57;;;9.48;;
34725;SDS011;20951;50.818;4.344;2023-06-19T03:04:39;15.73;;;10.98;;
34725;SDS011;20951;50.818;4.344;2023-06-19T03:07:08;16.40;;;11.32;;
34725;SDS011;20951;50.818;4.344;2023-06-19T03:09:34;15.45;;;12.02;;
34725;SDS011;20951;50.818;4.344;2023-06-19T03:12:00;18.00;;;14.02;;
34725;SDS011;20951;50.818;4.344;2023-06-19T03:14:26;16.00;;;13.02;;
34725;SDS011;20951;50.818;4.344;2023-06-19T03:16:51;15.68;;;12.27;;
34725;SDS011;20951;50.818;4.344;2023-06-19T03:19:19;18.02;;;13.98;;
34725;SDS011;20951;50.818;4.344;2023-06-19T03:21:45;15.63;;;13.00;;
34725;SDS011;20951;50.818;4.344;2023-06-19T03:24:11;16.13;;;11.70;;
34725;SDS011;20951;50.818;4.344;2023-06-19T03:26:37;13.48;;;11.15;;
34725;SDS011;20951;50.818;4.344;2023-06-19T03:29:02;15.00;;;11.77;;
34725;SDS011;20951;50.818;4.344;2023-06-19T03:31:31;13.90;;;11.75;;
34725;SDS011;20951;50.818;4.344;2023-06-19T03:33:57;14.93;;;11.95;;
34725;SDS011;20951;50.818;4.344;2023-06-19T03:36:23;14.57;;;12.80;;
34725;SDS011;20951;50.818;4.344;2023-06-19T03:38:49;15.15;;;13.55;;
34725;SDS011;20951;50.818;4.344;2023-06-19T03:41:15;18.30;;;15.02;;
34725;SDS011;20951;50.818;4.344;2023-06-19T03:43:43;19.55;;;15.30;;
34725;SDS011;20951;50.818;4.344;2023-06-19T03:46:09;18.27;;;15.85;;
34725;SDS011;20951;50.818;4.344;2023-06-19T03:48:35;21.10;;;17.45;;
34725;SDS011;20951;50.818;4.344;2023-06-19T03:51:00;22.38;;;18.58;;
34725;SDS011;20951;50.818;4.344;2023-06-19T03:53:26;19.65;;;17.30;;
34725;SDS011;20951;50.818;4.344;2023-06-19T03:55:52;23.15;;;19.33;;
34725;SDS011;20951;50.818;4.344;2023-06-19T03:58:18;20.60;;;16.48;;
34725;SDS011;20951;50.818;4.344;2023-06-19T04:00:44;19.73;;;16.52;;
34725;SDS011;20951;50.818;4.344;2023-06-19T04:03:10;20.15;;;16.15;;
34725;SDS011;20951;50.818;4.344;2023-06-19T04:05:35;17.55;;;15.23;;
34725;SDS011;20951;50.818;4.344;2023-06-19T04:08:01;16.92;;;15.13;;
34725;SDS011;20951;50.818;4.344;2023-06-19T04:10:28;18.65;;;15.20;;
34725;SDS011;20951;50.818;4.344;2023-06-19T04:12:54;16.48;;;14.52;;
34725;SDS011;20951;50.818;4.344;2023-06-19T04:15:21;16.85;;;14.07;;
34725;SDS011;20951;50.818;4.344;2023-06-19T04:17:48;27.70;;;24.05;;
34725;SDS011;20951;50.818;4.344;2023-06-19T04:20:14;17.55;;;14.63;;
34725;SDS011;20951;50.818;4.344;2023-06-19T04:22:40;15.05;;;13.55;;
34725;SDS011;20951;50.818;4.344;2023-06-19T04:25:13;17.88;;;15.13;;
34725;SDS011;20951;50.818;4.344;2023-06-19T04:27:39;16.67;;;14.40;;
34725;SDS011;20951;50.818;4.344;2023-06-19T04:30:05;17.75;;;14.73;;
34725;SDS011;20951;50.818;4.344;2023-06-19T04:32:35;18.13;;;14.75;;
34725;SDS011;20951;50.818;4.344;2023-06-19T04:35:01;18.17;;;14.35;;
34725;SDS011;20951;50.818;4.344;2023-06-19T04:37:29;17.10;;;14.95;;
34725;SDS011;20951;50.818;4.344;2023-06-19T04:39:55;18.42;;;15.35;;
34725;SDS011;20951;50.818;4.344;2023-06-19T04:42:24;18.10;;;15.95;;
34725;SDS011;20951;50.818;4.344;2023-06-19T04:44:51;19.98;;;16.40;;
34725;SDS011;20951;50.818;4.344;2023-06-19T04:47:18;18.73;;;15.60;;
34725;SDS011;20951;50.818;4.344;2023-06-19T04:49:47;18.25;;;15.90;;
34725;SDS011;20951;50.818;4.344;2023-06-19T04:52:13;18.55;;;15.60;;
34725;SDS011;20951;50.818;4.344;2023-06-19T04:54:39;19.67;;;15.68;;
34725;SDS011;20951;50.818;4.344;2023-06-19T04:57:05;17.85;;;15.95;;
34725;SDS011;20951;50.818;4.344;2023-06-19T04:59:31;16.27;;;14.35;;
34725;SDS011;20951;50.818;4.344;2023-06-19T05:01:58;18.15;;;14.98;;
34725;SDS011;20951;50.818;4.344;2023-06-19T05:04:26;20.10;;;14.82;;
34725;SDS011;20951;50.818;4.344;2023-06-19T05:06:52;18.30;;;14.13;;
34725;SDS011;20951;50.818;4.344;2023-06-19T05:09:18;16.00;;;13.63;;
34725;SDS011;20951;50.818;4.344;2023-06-19T05:11:45;18.45;;;14.00;;
34725;SDS011;20951;50.818;4.344;2023-06-19T05:14:10;16.55;;;13.93;;
34725;SDS011;20951;50.818;4.344;2023-06-19T05:16:39;16.70;;;14.63;;
34725;SDS011;20951;50.818;4.344;2023-06-19T05:19:05;17.25;;;14.15;;
34725;SDS011;20951;50.818;4.344;2023-06-19T05:21:31;21.70;;;14.65;;
34725;SDS011;20951;50.818;4.344;2023-06-19T05:23:57;19.88;;;15.55;;
34725;SDS011;20951;50.818;4.344;2023-06-19T05:26:23;21.92;;;16.27;;
34725;SDS011;20951;50.818;4.344;2023-06-19T05:28:51;21.02;;;16.42;;
34725;SDS011;20951;50.818;4.344;2023-06-19T05:31:18;25.08;;;16.77;;
34725;SDS011;20951;50.818;4.344;2023-06-19T05:33:44;21.92;;;16.77;;
34725;SDS011;20951;50.818;4.344;2023-06-19T05:36:10;19.02;;;16.30;;
34725;SDS011;20951;50.818;4.344;2023-06-19T05:38:36;23.58;;;17.75;;
34725;SDS011;20951;50.818;4.344;2023-06-19T05:41:02;18.40;;;15.45;;
34725;SDS011;20951;50.818;4.344;2023-06-19T05:43:28;19.00;;;15.20;;
34725;SDS011;20951;50.818;4.344;2023-06-19T05:45:54;20.67;;;16.20;;
34725;SDS011;20951;50.818;4.344;2023-06-19T05:48:22;20.38;;;17.35;;
34725;SDS011;20951;50.818;4.344;2023-06-19T05:50:50;22.98;;;18.25;;
34725;SDS011;20951;50.818;4.344;2023-06-19T05:53:16;21.50;;;16.98;;
34725;SDS011;20951;50.818;4.344;2023-06-19T05:55:42;21.98;;;17.65;;
34725;SDS011;20951;50.818;4.344;2023-06-19T05:58:08;20.73;;;18.27;;
34725;SDS011;20951;50.818;4.344;2023-06-19T06:00:34;24.42;;;19.20;;
34725;SDS011;20951;50.818;4.344;2023-06-19T06:03:00;29.08;;;19.98;;
34725;SDS011;20951;50.818;4.344;2023-06-19T06:05:26;23.55;;;18.77;;
34725;SDS011;20951;50.818;4.344;2023-06-19T06:07:53;24.02;;;19.40;;
34725;SDS011;20951;50.818;4.344;2023-06-19T06:10:20;23.05;;;20.27;;
34725;SDS011;20951;50.818;4.344;2023-06-19T06:12:48;22.42;;;19.20;;
34725;SDS011;20951;50.818;4.344;2023-06-19T06:15:15;28.77;;;21.23;;
34725;SDS011;20951;50.818;4.344;2023-06-19T06:17:53;25.52;;;20.08;;
34725;SDS011;20951;50.818;4.344;2023-06-19T06:20:19;26.10;;;20.15;;
34725;SDS011;20951;50.818;4.344;2023-06-19T06:22:48;24.83;;;21.35;;
34725;SDS011;20951;50.818;4.344;2023-06-19T06:25:15;29.20;;;22.88;;
34725;SDS011;20951;50.818;4.344;2023-06-19T06:27:41;27.92;;;22.13;;
34725;SDS011;20951;50.818;4.344;2023-06-19T06:30:09;28.63;;;22.85;;
34725;SDS011;20951;50.818;4.344;2023-06-19T06:32:38;26.63;;;21.42;;
34725;SDS011;20951;50.818;4.344;2023-06-19T06:35:04;25.17;;;21.85;;
34725;SDS011;20951;50.818;4.344;2023-06-19T06:37:30;24.20;;;21.48;;
34725;SDS011;20951;50.818;4.344;2023-06-19T06:39:59;23.27;;;20.00;;
34725;SDS011;20951;50.818;4.344;2023-06-19T06:42:28;22.65;;;19.27;;
34725;SDS011;20951;50.818;4.344;2023-06-19T06:44:54;22.67;;;17.63;;
34725;SDS011;20951;50.818;4.344;2023-06-19T06:47:19;21.08;;;18.38;;
34725;SDS011;20951;50.818;4.344;2023-06-19T06:49:48;23.05;;;17.63;;
34725;SDS011;20951;50.818;4.344;2023-06-19T06:52:17;26.08;;;17.42;;
34725;SDS011;20951;50.818;4.344;2023-06-19T06:54:43;24.63;;;17.42;;
34725;SDS011;20951;50.818;4.344;2023-06-19T06:57:09;21.50;;;16.45;;
34725;SDS011;20951;50.818;4.344;2023-06-19T06:59:37;23.38;;;17.58;;
34725;SDS011;20951;50.818;4.344;2023-06-19T07:02:03;24.92;;;22.10;;
34725;SDS011;20951;50.818;4.344;2023-06-19T07:04:29;22.27;;;17.65;;
34725;SDS011;20951;50.818;4.344;2023-06-19T07:06:55;22.10;;;16.65;;
34725;SDS011;20951;50.818;4.344;2023-06-19T07:09:24;17.80;;;14.57;;
34725;SDS011;20951;50.818;4.344;2023-06-19T07:11:52;18.77;;;15.00;;
34725;SDS011;20951;50.818;4.344;2023-06-19T07:14:21;21.70;;;15.38;;
34725;SDS011;20951;50.818;4.344;2023-06-19T07:16:47;19.13;;;13.30;;
34725;SDS011;20951;50.818;4.344;2023-06-19T07:19:21;15.63;;;12.77;;
34725;SDS011;20951;50.818;4.344;2023-06-19T07:21:47;18.55;;;13.02;;
34725;SDS011;20951;50.818;4.344;2023-06-19T07:24:15;18.45;;;12.60;;
34725;SDS011;20951;50.818;4.344;2023-06-19T07:26:41;18.17;;;13.23;;
34725;SDS011;20951;50.818;4.344;2023-06-19T07:29:07;17.45;;;12.95;;
34725;SDS011;20951;50.818;4.344;2023-06-19T07:31:33;17.38;;;13.65;;
34725;SDS011;20951;50.818;4.344;2023-06-19T07:33:58;16.60;;;13.23;;
34725;SDS011;20951;50.818;4.344;2023-06-19T07:36:24;16.80;;;12.63;;
34725;SDS011;20951;50.818;4.344;2023-06-19T07:38:54;16.25;;;13.30;;
34725;SDS011;20951;50.818;4.344;2023-06-19T07:41:20;15.93;;;12.13;;
34725;SDS011;20951;50.818;4.344;2023-06-19T07:43:46;16.02;;;12.57;;
34725;SDS011;20951;50.818;4.344;2023-06-19T07:46:12;14.73;;;12.60;;
34725;SDS011;20951;50.818;4.344;2023-06-19T07:48:47;16.38;;;13.05;;
34725;SDS011;20951;50.818;4.344;2023-06-19T07:51:13;15.15;;;13.00;;
34725;SDS011;20951;50.818;4.344;2023-06-19T07:53:38;16.55;;;12.40;;
34725;SDS011;20951;50.818;4.344;2023-06-19T07:56:06;15.40;;;13.07;;
34725;SDS011;20951;50.818;4.344;2023-06-19T07:58:34;14.73;;;12.20;;
34725;SDS011;20951;50.818;4.344;2023-06-19T08:00:59;15.85;;;12.27;;
34725;SDS011;20951;50.818;4.344;2023-06-19T08:03:25;16.15;;;12.68;;
34725;SDS011;20951;50.818;4.344;2023-06-19T08:05:52;16.05;;;11.52;;
34725;SDS011;20951;50.818;4.344;2023-06-19T08:08:20;20.35;;;11.40;;
34725;SDS011;20951;50.818;4.344;2023-06-19T08:10:54;16.95;;;11.65;;
34725;SDS011;20951;50.818;4.344;2023-06-19T08:13:20;13.18;;;11.07;;
34725;SDS011;20951;50.818;4.344;2023-06-19T08:15:45;13.75;;;11.27;;
34725;SDS011;20951;50.818;4.344;2023-06-19T08:18:11;15.07;;;10.90;;
34725;SDS011;20951;50.818;4.344;2023-06-19T08:20:37;15.35;;;11.35;;
34725;SDS011;20951;50.818;4.344;2023-06-19T08:23:03;13.65;;;10.50;;
34725;SDS011;20951;50.818;4.344;2023-06-19T08:25:29;18.10;;;10.05;;
34725;SDS011;20951;50.818;4.344;2023-06-19T08:27:54;14.82;;;9.73;;
34725;SDS011;20951;50.818;4.344;2023-06-19T08:30:20;10.50;;;9.45;;
34725;SDS011;20951;50.818;4.344;2023-06-19T08:32:46;14.57;;;9.60;;
34725;SDS011;20951;50.818;4.344;2023-06-19T08:35:13;16.00;;;10.23;;
34725;SDS011;20951;50.818;4.344;2023-06-19T08:37:40;16.45;;;9.98;;
34725;SDS011;20951;50.818;4.344;2023-06-19T08:40:06;15.65;;;9.07;;
34725;SDS011;20951;50.818;4.344;2023-06-19T08:42:34;11.38;;;9.40;;
34725;SDS011;20951;50.818;4.344;2023-06-19T08:45:01;14.43;;;8.98;;
34725;SDS011;20951;50.818;4.344;2023-06-19T08:47:31;12.90;;;9.90;;
34725;SDS011;20951;50.818;4.344;2023-06-19T08:49:58;12.68;;;9.30;;
34725;SDS011;20951;50.818;4.344;2023-06-19T08:52:24;11.77;;;9.32;;
34725;SDS011;20951;50.818;4.344;2023-06-19T08:54:50;12.00;;;9.27;;
34725;SDS011;20951;50.818;4.344;2023-06-19T08:57:17;15.45;;;10.13;;
34725;SDS011;20951;50.818;4.344;2023-06-19T08:59:49;12.38;;;10.13;;
34725;SDS011;20951;50.818;4.344;2023-06-19T09:02:16;13.48;;;8.93;;
34725;SDS011;20951;50.818;4.344;2023-06-19T09:04:42;13.60;;;10.02;;
34725;SDS011;20951;50.818;4.344;2023-06-19T09:07:08;13.52;;;9.20;;
34725;SDS011;20951;50.818;4.344;2023-06-19T09:09:34;12.98;;;8.98;;
34725;SDS011;20951;50.818;4.344;2023-06-19T09:12:01;15.27;;;9.05;;
34725;SDS011;20951;50.818;4.344;2023-06-19T09:14:31;15.90;;;9.13;;
34725;SDS011;20951;50.818;4.344;2023-06-19T09:17:02;13.93;;;8.30;;
34725;SDS011;20951;50.818;4.344;2023-06-19T09:19:29;12.38;;;8.70;;
34725;SDS011;20951;50.818;4.344;2023-06-19T09:22:01;14.30;;;8.27;;
34725;SDS011;20951;50.818;4.344;2023-06-19T09:24:34;12.13;;;9.10;;
34725;SDS011;20951;50.818;4.344;2023-06-19T09:27:06;13.57;;;8.43;;
34725;SDS011;20951;50.818;4.344;2023-06-19T09:29:42;14.07;;;8.77;;
34725;SDS011;20951;50.818;4.344;2023-06-19T09:32:18;11.55;;;8.50;;
34725;SDS011;20951;50.818;4.344;2023-06-19T09:34:48;12.27;;;8.35;;
34725;SDS011;20951;50.818;4.344;2023-06-19T09:37:17;11.93;;;7.95;;
34725;SDS011;20951;50.818;4.344;2023-06-19T09:39:53;12.25;;;8.68;;
34725;SDS011;20951;50.818;4.344;2023-06-19T09:42:32;11.70;;;8.80;;
34725;SDS011;20951;50.818;4.344;2023-06-19T09:45:05;12.18;;;8.70;;
34725;SDS011;20951;50.818;4.344;2023-06-19T09:50:03;14.35;;;8.95;;
34725;SDS011;20951;50.818;4.344;2023-06-19T09:52:31;10.65;;;8.73;;
34725;SDS011;20951;50.818;4.344;2023-06-19T09:54:57;13.90;;;9.50;;
34725;SDS011;20951;50.818;4.344;2023-06-19T09:57:25;12.90;;;9.77;;
34725;SDS011;20951;50.818;4.344;2023-06-19T09:59:52;13.32;;;10.40;;
34725;SDS011;20951;50.818;4.344;2023-06-19T10:02:21;14.75;;;10.55;;
34725;SDS011;20951;50.818;4.344;2023-06-19T10:04:52;15.57;;;10.27;;
34725;SDS011;20951;50.818;4.344;2023-06-19T10:07:23;13.65;;;10.48;;
34725;SDS011;20951;50.818;4.344;2023-06-19T10:09:57;15.23;;;10.23;;
34725;SDS011;20951;50.818;4.344;2023-06-19T10:17:46;13.85;;;9.73;;
34725;SDS011;20951;50.818;4.344;2023-06-19T10:25:57;11.93;;;9.65;;
34725;SDS011;20951;50.818;4.344;2023-06-19T10:33:30;9.57;;;8.18;;
34725;SDS011;20951;50.818;4.344;2023-06-19T10:36:12;13.07;;;8.80;;
34725;SDS011;20951;50.818;4.344;2023-06-19T10:38:39;11.68;;;8.55;;
34725;SDS011;20951;50.818;4.344;2023-06-19T10:41:05;11.77;;;8.40;;
34725;SDS011;20951;50.818;4.344;2023-06-19T10:43:40;13.57;;;8.60;;
34725;SDS011;20951;50.818;4.344;2023-06-19T10:46:06;11.60;;;7.85;;
34725;SDS011;20951;50.818;4.344;2023-06-19T10:48:31;11.13;;;8.18;;
34725;SDS011;20951;50.818;4.344;2023-06-19T10:50:57;13.43;;;7.97;;
34725;SDS011;20951;50.818;4.344;2023-06-19T10:53:33;10.48;;;7.28;;
34725;SDS011;20951;50.818;4.344;2023-06-19T10:55:59;10.73;;;7.70;;
34725;SDS011;20951;50.818;4.344;2023-06-19T10:58:27;10.95;;;7.45;;
34725;SDS011;20951;50.818;4.344;2023-06-19T11:00:53;13.85;;;8.40;;
34725;SDS011;20951;50.818;4.344;2023-06-19T11:03:20;13.38;;;8.77;;
34725;SDS011;20951;50.818;4.344;2023-06-19T11:05:47;13.45;;;9.68;;
34725;SDS011;20951;50.818;4.344;2023-06-19T11:08:17;12.57;;;9.00;;
34725;SDS011;20951;50.818;4.344;2023-06-19T11:10:44;11.98;;;9.05;;
34725;SDS011;20951;50.818;4.344;2023-06-19T11:13:13;14.15;;;9.23;;
34725;SDS011;20951;50.818;4.344;2023-06-19T11:15:41;14.70;;;9.55;;
34725;SDS011;20951;50.818;4.344;2023-06-19T11:18:07;14.48;;;9.43;;
34725;SDS011;20951;50.818;4.344;2023-06-19T11:20:43;11.85;;;8.38;;
34725;SDS011;20951;50.818;4.344;2023-06-19T11:23:15;14.52;;;9.13;;
34725;SDS011;20951;50.818;4.344;2023-06-19T11:25:41;14.05;;;7.97;;
34725;SDS011;20951;50.818;4.344;2023-06-19T11:28:11;11.75;;;7.13;;
34725;SDS011;20951;50.818;4.344;2023-06-19T11:30:43;11.40;;;7.18;;
34725;SDS011;20951;50.818;4.344;2023-06-19T11:33:17;13.80;;;6.60;;
34725;SDS011;20951;50.818;4.344;2023-06-19T11:35:47;9.95;;;7.38;;
34725;SDS011;20951;50.818;4.344;2023-06-19T11:38:21;10.88;;;8.07;;
34725;SDS011;20951;50.818;4.344;2023-06-19T11:40:51;14.00;;;6.88;;
34725;SDS011;20951;50.818;4.344;2023-06-19T11:43:28;11.30;;;6.45;;
34725;SDS011;20951;50.818;4.344;2023-06-19T11:46:06;12.48;;;6.55;;
34725;SDS011;20951;50.818;4.344;2023-06-19T11:48:38;9.45;;;6.25;;
34725;SDS011;20951;50.818;4.344;2023-06-19T11:51:04;9.77;;;5.78;;
34725;SDS011;20951;50.818;4.344;2023-06-19T11:53:33;9.20;;;5.47;;
34725;SDS011;20951;50.818;4.344;2023-06-19T11:55:58;33.88;;;7.72;;
34725;SDS011;20951;50.818;4.344;2023-06-19T11:58:25;9.85;;;6.80;;
34725;SDS011;20951;50.818;4.344;2023-06-19T12:00:53;10.98;;;6.22;;
34725;SDS011;20951;50.818;4.344;2023-06-19T12:03:19;11.02;;;6.25;;
34725;SDS011;20951;50.818;4.344;2023-06-19T12:05:44;9.23;;;5.80;;
34725;SDS011;20951;50.818;4.344;2023-06-19T12:08:13;9.00;;;6.47;;
34725;SDS011;20951;50.818;4.344;2023-06-19T12:10:39;10.85;;;6.25;;
34725;SDS011;20951;50.818;4.344;2023-06-19T12:13:05;11.15;;;6.38;;
34725;SDS011;20951;50.818;4.344;2023-06-19T12:15:30;12.02;;;9.40;;
34725;SDS011;20951;50.818;4.344;2023-06-19T12:17:56;10.13;;;6.78;;
34725;SDS011;20951;50.818;4.344;2023-06-19T12:20:23;14.35;;;6.25;;
34725;SDS011;20951;50.818;4.344;2023-06-19T12:22:52;7.55;;;5.95;;
34725;SDS011;20951;50.818;4.344;2023-06-19T12:25:18;8.18;;;5.25;;
34725;SDS011;20951;50.818;4.344;2023-06-19T12:27:47;9.57;;;5.93;;
34725;SDS011;20951;50.818;4.344;2023-06-19T12:30:15;10.05;;;5.60;;
34725;SDS011;20951;50.818;4.344;2023-06-19T12:32:40;9.32;;;5.65;;
34725;SDS011;20951;50.818;4.344;2023-06-19T12:35:08;7.30;;;5.25;;
34725;SDS011;20951;50.818;4.344;2023-06-19T12:37:34;6.88;;;5.25;;
34725;SDS011;20951;50.818;4.344;2023-06-19T12:40:03;23.52;;;21.05;;
34725;SDS011;20951;50.818;4.344;2023-06-19T12:42:33;9.25;;;6.30;;
34725;SDS011;20951;50.818;4.344;2023-06-19T12:44:59;9.60;;;5.90;;
34725;SDS011;20951;50.818;4.344;2023-06-19T12:47:29;9.45;;;5.68;;
34725;SDS011;20951;50.818;4.344;2023-06-19T12:49:55;8.10;;;5.40;;
34725;SDS011;20951;50.818;4.344;2023-06-19T12:52:22;10.82;;;4.90;;
34725;SDS011;20951;50.818;4.344;2023-06-19T12:54:48;10.82;;;5.32;;
34725;SDS011;20951;50.818;4.344;2023-06-19T12:57:14;7.72;;;4.93;;
34725;SDS011;20951;50.818;4.344;2023-06-19T12:59:40;7.95;;;4.72;;
34725;SDS011;20951;50.818;4.344;2023-06-19T13:02:06;10.48;;;5.60;;
34725;SDS011;20951;50.818;4.344;2023-06-19T13:04:32;9.05;;;5.68;;
34725;SDS011;20951;50.818;4.344;2023-06-19T13:06:58;8.98;;;5.45;;
34725;SDS011;20951;50.818;4.344;2023-06-19T13:09:24;9.38;;;5.63;;
34725;SDS011;20951;50.818;4.344;2023-06-19T13:11:49;10.38;;;5.40;;
34725;SDS011;20951;50.818;4.344;2023-06-19T13:14:18;8.93;;;5.50;;
34725;SDS011;20951;50.818;4.344;2023-06-19T13:16:44;9.48;;;5.65;;
34725;SDS011;20951;50.818;4.344;2023-06-19T13:19:10;8.77;;;5.72;;
34725;SDS011;20951;50.818;4.344;2023-06-19T13:21:40;9.23;;;5.20;;
34725;SDS011;20951;50.818;4.344;2023-06-19T13:24:06;8.18;;;5.20;;
34725;SDS011;20951;50.818;4.344;2023-06-19T13:26:32;9.70;;;5.65;;
34725;SDS011;20951;50.818;4.344;2023-06-19T13:28:58;7.93;;;5.70;;
34725;SDS011;20951;50.818;4.344;2023-06-19T13:31:26;12.20;;;5.50;;
34725;SDS011;20951;50.818;4.344;2023-06-19T13:33:52;14.30;;;5.82;;
34725;SDS011;20951;50.818;4.344;2023-06-19T13:36:21;9.80;;;5.60;;
34725;SDS011;20951;50.818;4.344;2023-06-19T13:38:57;8.40;;;5.22;;
34725;SDS011;20951;50.818;4.344;2023-06-19T13:41:26;10.43;;;5.38;;
34725;SDS011;20951;50.818;4.344;2023-06-19T13:43:59;10.45;;;5.15;;
34725;SDS011;20951;50.818;4.344;2023-06-19T13:46:28;9.02;;;4.85;;
34725;SDS011;20951;50.818;4.344;2023-06-19T13:48:56;8.98;;;4.47;;
34725;SDS011;20951;50.818;4.344;2023-06-19T13:51:22;8.98;;;4.35;;
34725;SDS011;20951;50.818;4.344;2023-06-19T13:53:49;9.32;;;4.80;;
34725;SDS011;20951;50.818;4.344;2023-06-19T13:56:25;8.32;;;4.72;;
34725;SDS011;20951;50.818;4.344;2023-06-19T13:58:50;7.13;;;4.68;;
34725;SDS011;20951;50.818;4.344;2023-06-19T14:01:25;8.85;;;5.20;;
34725;SDS011;20951;50.818;4.344;2023-06-19T14:03:53;7.38;;;4.68;;
34725;SDS011;20951;50.818;4.344;2023-06-19T14:06:19;7.20;;;4.82;;
34725;SDS011;20951;50.818;4.344;2023-06-19T14:08:45;10.88;;;5.10;;
34725;SDS011;20951;50.818;4.344;2023-06-19T14:11:11;7.35;;;4.45;;
34725;SDS011;20951;50.818;4.344;2023-06-19T14:13:37;7.18;;;4.03;;
34725;SDS011;20951;50.818;4.344;2023-06-19T14:16:03;7.38;;;4.32;;
34725;SDS011;20951;50.818;4.344;2023-06-19T14:18:29;8.07;;;4.70;;
34725;SDS011;20951;50.818;4.344;2023-06-19T14:21:05;6.75;;;4.57;;
34725;SDS011;20951;50.818;4.344;2023-06-19T14:23:31;7.57;;;4.68;;
34725;SDS011;20951;50.818;4.344;2023-06-19T14:26:19;9.30;;;4.75;;
34725;SDS011;20951;50.818;4.344;2023-06-19T14:28:48;8.48;;;4.75;;
34725;SDS011;20951;50.818;4.344;2023-06-19T14:31:24;7.30;;;5.15;;
34725;SDS011;20951;50.818;4.344;2023-06-19T14:34:15;9.15;;;4.85;;
34725;SDS011;20951;50.818;4.344;2023-06-19T14:36:46;7.20;;;5.00;;
34725;SDS011;20951;50.818;4.344;2023-06-19T14:39:19;7.30;;;4.63;;
34725;SDS011;20951;50.818;4.344;2023-06-19T14:41:55;6.60;;;3.97;;
34725;SDS011;20951;50.818;4.344;2023-06-19T14:44:31;6.90;;;4.10;;
34725;SDS011;20951;50.818;4.344;2023-06-19T14:47:10;5.57;;;4.10;;
34725;SDS011;20951;50.818;4.344;2023-06-19T14:49:46;6.05;;;4.18;;
34725;SDS011;20951;50.818;4.344;2023-06-19T14:52:13;7.35;;;4.65;;
34725;SDS011;20951;50.818;4.344;2023-06-19T14:54:41;6.80;;;4.55;;
34725;SDS011;20951;50.818;4.344;2023-06-19T14:57:09;7.53;;;4.78;;
34725;SDS011;20951;50.818;4.344;2023-06-19T14:59:35;7.93;;;4.40;;